createdAt,value
2018-12-26T00:00:43.172Z,0.00
2018-12-26T00:01:47.660Z,0.00
2018-12-26T00:02:52.243Z,0.00
2018-12-26T00:03:56.767Z,0.00
2018-12-26T00:05:01.122Z,0.10
2018-12-26T00:06:05.595Z,0.10
2018-12-26T00:07:10.008Z,0.20
2018-12-26T00:08:14.469Z,0.20
2018-12-26T00:09:18.932Z,0.20
2018-12-26T00:10:23.384Z,0.20
2018-12-26T00:11:27.926Z,0.30
2018-12-26T00:12:32.363Z,0.20
2018-12-26T00:13:37.056Z,0.30
2018-12-26T00:14:41.588Z,0.40
2018-12-26T00:15:45.941Z,0.40
2018-12-26T00:16:50.306Z,0.40
2018-12-26T00:17:54.880Z,0.30
2018-12-26T00:18:59.278Z,0.30
2018-12-26T00:20:03.909Z,0.30
2018-12-26T00:21:08.364Z,0.30
2018-12-26T00:22:12.836Z,0.20
2018-12-26T00:23:17.316Z,0.20
2018-12-26T00:24:21.917Z,0.20
2018-12-26T00:25:26.425Z,0.20
2018-12-26T00:26:30.786Z,0.10
2018-12-26T00:27:35.129Z,0.20
2018-12-26T00:28:39.562Z,0.20
2018-12-26T00:29:44.043Z,0.20
2018-12-26T00:30:48.500Z,0.20
2018-12-26T00:31:52.913Z,0.20
2018-12-26T00:32:57.405Z,0.10
2018-12-26T00:34:01.804Z,0.10
2018-12-26T00:35:06.382Z,0.10
2018-12-26T00:36:10.962Z,0.10
2018-12-26T00:37:15.353Z,0.00
2018-12-26T00:38:19.835Z,0.00
2018-12-26T00:39:24.239Z,0.10
2018-12-26T00:40:28.649Z,0.20
2018-12-26T00:41:33.077Z,0.10
2018-12-26T00:42:37.447Z,0.20
2018-12-26T00:43:42.048Z,0.10
2018-12-26T00:44:46.536Z,0.20
2018-12-26T00:45:51.045Z,0.30
2018-12-26T00:46:55.498Z,0.30
2018-12-26T00:47:59.944Z,0.30
2018-12-26T00:49:04.394Z,0.30
2018-12-26T00:50:08.781Z,0.30
2018-12-26T00:51:13.404Z,0.40
2018-12-26T00:52:17.846Z,0.40
2018-12-26T00:53:22.283Z,0.40
2018-12-26T00:54:26.829Z,0.50
2018-12-26T00:55:31.265Z,0.60
2018-12-26T00:56:35.773Z,0.60
2018-12-26T00:57:40.345Z,0.60
2018-12-26T00:58:44.830Z,0.60
2018-12-26T00:59:49.389Z,0.70
2018-12-26T01:00:53.822Z,0.70
2018-12-26T01:01:58.244Z,0.70
2018-12-26T01:03:02.735Z,0.80
2018-12-26T01:04:07.179Z,0.80
2018-12-26T01:05:11.593Z,0.80
2018-12-26T01:06:16.224Z,0.80
2018-12-26T01:07:21.013Z,0.90
2018-12-26T01:08:25.376Z,0.90
2018-12-26T01:09:29.740Z,1.00
2018-12-26T01:10:34.115Z,1.00
2018-12-26T01:11:38.509Z,1.00
2018-12-26T01:12:43.011Z,1.10
2018-12-26T01:13:47.852Z,1.10
2018-12-26T01:14:52.329Z,1.20
2018-12-26T01:15:56.753Z,1.20
2018-12-26T01:17:01.221Z,1.20
2018-12-26T01:18:05.613Z,1.20
2018-12-26T01:19:10.049Z,1.30
2018-12-26T01:20:14.409Z,1.30
2018-12-26T01:21:18.889Z,1.40
2018-12-26T01:22:23.288Z,1.40
2018-12-26T01:23:27.743Z,1.40
2018-12-26T01:24:32.135Z,1.40
2018-12-26T01:25:36.592Z,1.40
2018-12-26T01:26:41.061Z,1.50
2018-12-26T01:27:45.454Z,1.50
2018-12-26T01:28:49.914Z,1.50
2018-12-26T01:29:54.411Z,1.70
2018-12-26T01:30:58.783Z,1.70
2018-12-26T01:32:03.280Z,1.70
2018-12-26T01:33:07.613Z,1.70
2018-12-26T01:34:12.101Z,1.70
2018-12-26T01:35:16.516Z,1.70
2018-12-26T01:36:20.941Z,1.80
2018-12-26T01:38:29.148Z,1.80
2018-12-26T01:39:33.730Z,1.80
2018-12-26T01:40:38.098Z,1.80
2018-12-26T01:41:42.485Z,1.80
2018-12-26T01:42:47.046Z,1.80
2018-12-26T01:43:51.476Z,1.80
2018-12-26T01:44:55.956Z,1.80
2018-12-26T01:46:00.400Z,1.80
2018-12-26T01:47:04.831Z,1.80
2018-12-26T01:48:09.236Z,1.80
2018-12-26T01:49:32.649Z,1.80
2018-12-26T01:50:37.086Z,1.90
2018-12-26T01:51:41.507Z,1.90
2018-12-26T01:52:46.119Z,1.90
2018-12-26T01:53:50.492Z,2.00
2018-12-26T01:54:54.878Z,2.00
2018-12-26T01:55:59.333Z,1.90
2018-12-26T01:57:03.646Z,2.00
2018-12-26T01:58:08.032Z,1.90
2018-12-26T01:59:12.453Z,2.00
2018-12-26T02:00:16.842Z,2.10
2018-12-26T02:01:21.186Z,2.00
2018-12-26T02:02:25.556Z,2.00
2018-12-26T02:03:29.956Z,2.00
2018-12-26T02:04:34.260Z,2.00
2018-12-26T02:05:38.612Z,2.00
2018-12-26T02:06:42.995Z,2.00
2018-12-26T02:07:47.404Z,2.00
2018-12-26T02:08:51.795Z,2.00
2018-12-26T02:09:56.331Z,1.90
2018-12-26T02:11:00.791Z,1.90
2018-12-26T02:12:05.130Z,1.90
2018-12-26T02:13:09.685Z,1.90
2018-12-26T02:14:14.074Z,1.90
2018-12-26T02:15:18.530Z,2.00
2018-12-26T02:16:23.026Z,1.90
2018-12-26T02:17:27.402Z,1.90
2018-12-26T02:18:31.882Z,1.90
2018-12-26T02:19:36.235Z,1.90
2018-12-26T02:20:40.546Z,1.90
2018-12-26T02:21:44.906Z,1.90
2018-12-26T02:22:49.220Z,1.90
2018-12-26T02:23:53.609Z,1.90
2018-12-26T02:24:58.123Z,1.90
2018-12-26T02:26:02.532Z,2.00
2018-12-26T02:27:07.022Z,2.00
2018-12-26T02:28:11.387Z,2.00
2018-12-26T02:29:15.789Z,1.90
2018-12-26T02:30:20.124Z,2.00
2018-12-26T02:31:24.508Z,2.00
2018-12-26T02:32:30.363Z,2.00
2018-12-26T02:33:34.905Z,2.00
2018-12-26T02:34:39.335Z,2.00
2018-12-26T02:35:43.658Z,2.10
2018-12-26T02:36:48.199Z,2.10
2018-12-26T02:37:52.571Z,2.10
2018-12-26T02:38:57.073Z,2.10
2018-12-26T02:40:01.542Z,2.10
2018-12-26T02:41:05.905Z,2.10
2018-12-26T02:42:10.215Z,2.10
2018-12-26T02:43:14.571Z,2.10
2018-12-26T02:44:19.013Z,2.10
2018-12-26T02:45:23.487Z,2.10
2018-12-26T02:46:28.059Z,2.20
2018-12-26T02:47:32.408Z,2.10
2018-12-26T02:48:36.842Z,2.10
2018-12-26T02:49:41.221Z,2.10
2018-12-26T02:50:45.538Z,2.10
2018-12-26T02:51:49.883Z,2.10
2018-12-26T02:52:54.183Z,2.10
2018-12-26T02:53:58.701Z,2.10
2018-12-26T02:55:03.064Z,2.20
2018-12-26T02:56:08.030Z,2.10
2018-12-26T02:57:12.376Z,2.20
2018-12-26T02:58:16.716Z,2.10
2018-12-26T02:59:21.154Z,2.10
2018-12-26T03:00:25.502Z,2.10
2018-12-26T03:01:29.864Z,2.10
2018-12-26T03:02:34.202Z,2.10
2018-12-26T03:03:38.555Z,2.10
2018-12-26T03:04:42.994Z,2.10
2018-12-26T03:05:47.451Z,2.20
2018-12-26T03:06:51.822Z,2.10
2018-12-26T03:07:56.197Z,2.10
2018-12-26T03:09:00.717Z,2.10
2018-12-26T03:10:05.286Z,2.10
2018-12-26T03:11:09.762Z,2.10
2018-12-26T03:12:14.129Z,2.20
2018-12-26T03:13:18.440Z,2.20
2018-12-26T03:14:22.786Z,2.10
2018-12-26T03:15:27.213Z,2.10
2018-12-26T03:16:31.735Z,2.10
2018-12-26T03:17:36.097Z,2.00
2018-12-26T03:18:40.450Z,2.00
2018-12-26T03:19:45.012Z,2.00
2018-12-26T03:20:49.402Z,2.00
2018-12-26T03:21:53.768Z,2.10
2018-12-26T03:22:58.179Z,2.10
2018-12-26T03:24:02.533Z,2.10
2018-12-26T03:25:07.049Z,2.10
2018-12-26T03:26:11.447Z,2.20
2018-12-26T03:27:15.805Z,2.20
2018-12-26T03:28:20.138Z,2.20
2018-12-26T03:29:24.468Z,2.20
2018-12-26T03:30:28.895Z,2.20
2018-12-26T03:31:33.235Z,2.20
2018-12-26T03:32:37.652Z,2.20
2018-12-26T03:33:41.980Z,2.20
2018-12-26T03:34:46.321Z,2.30
2018-12-26T03:35:50.626Z,2.20
2018-12-26T03:36:54.929Z,2.30
2018-12-26T03:37:59.367Z,2.30
2018-12-26T03:39:04.738Z,2.30
2018-12-26T03:40:09.430Z,2.30
2018-12-26T03:41:14.050Z,2.30
2018-12-26T03:42:18.418Z,2.20
2018-12-26T03:43:23.030Z,2.30
2018-12-26T03:44:28.707Z,2.30
2018-12-26T03:45:33.538Z,2.20
2018-12-26T03:46:37.824Z,2.20
2018-12-26T03:47:42.948Z,2.20
2018-12-26T03:48:47.347Z,2.20
2018-12-26T03:49:51.666Z,2.20
2018-12-26T03:50:56.014Z,2.20
2018-12-26T03:52:02.126Z,2.30
2018-12-26T03:53:06.375Z,2.20
2018-12-26T03:54:10.762Z,2.20
2018-12-26T03:55:15.228Z,2.20
2018-12-26T03:56:19.642Z,2.20
2018-12-26T03:57:23.984Z,2.20
2018-12-26T03:58:28.726Z,2.20
2018-12-26T03:59:33.273Z,2.10
2018-12-26T04:00:37.607Z,2.10
2018-12-26T04:01:42.051Z,2.10
2018-12-26T04:02:46.494Z,2.10
2018-12-26T04:03:50.955Z,2.10
2018-12-26T04:04:55.277Z,2.10
2018-12-26T04:05:59.601Z,2.20
2018-12-26T04:07:04.058Z,2.20
2018-12-26T04:08:08.458Z,2.20
2018-12-26T04:09:12.960Z,2.10
2018-12-26T04:10:17.654Z,2.20
2018-12-26T04:11:22.118Z,2.20
2018-12-26T04:12:26.441Z,2.20
2018-12-26T04:13:30.921Z,2.20
2018-12-26T04:14:35.343Z,2.20
2018-12-26T04:15:40.050Z,2.20
2018-12-26T04:16:44.376Z,2.20
2018-12-26T04:17:48.875Z,2.20
2018-12-26T04:18:53.256Z,2.20
2018-12-26T04:19:57.737Z,2.20
2018-12-26T04:21:02.307Z,2.20
2018-12-26T04:22:06.638Z,2.10
2018-12-26T04:23:11.217Z,2.20
2018-12-26T04:24:15.747Z,2.20
2018-12-26T04:25:20.055Z,2.20
2018-12-26T04:26:24.421Z,2.20
2018-12-26T04:27:28.775Z,2.20
2018-12-26T04:28:33.278Z,2.20
2018-12-26T04:29:37.696Z,2.20
2018-12-26T04:30:42.135Z,2.20
2018-12-26T04:31:46.482Z,2.20
2018-12-26T04:32:50.785Z,2.20
2018-12-26T04:33:55.235Z,2.30
2018-12-26T04:34:59.551Z,2.30
2018-12-26T04:36:03.909Z,2.30
2018-12-26T04:37:08.301Z,2.30
2018-12-26T04:38:12.640Z,2.40
2018-12-26T04:39:17.050Z,2.40
2018-12-26T04:40:21.416Z,2.40
2018-12-26T04:41:25.737Z,2.30
2018-12-26T04:42:30.179Z,2.30
2018-12-26T04:43:34.620Z,2.30
2018-12-26T04:44:38.987Z,2.30
2018-12-26T04:45:43.297Z,2.30
2018-12-26T04:46:47.643Z,2.30
2018-12-26T04:47:52.056Z,2.20
2018-12-26T04:48:56.415Z,2.20
2018-12-26T04:50:00.870Z,2.30
2018-12-26T04:51:05.228Z,2.30
2018-12-26T04:52:09.532Z,2.30
2018-12-26T04:53:13.873Z,2.30
2018-12-26T04:54:18.400Z,2.30
2018-12-26T04:55:22.861Z,2.30
2018-12-26T04:56:27.265Z,2.40
2018-12-26T04:57:31.674Z,2.30
2018-12-26T04:58:36.126Z,2.30
2018-12-26T04:59:40.578Z,2.30
2018-12-26T05:00:44.942Z,2.40
2018-12-26T05:01:49.370Z,2.40
2018-12-26T05:02:53.840Z,2.30
2018-12-26T05:03:58.196Z,2.30
2018-12-26T05:05:02.594Z,2.30
2018-12-26T05:06:06.943Z,2.30
2018-12-26T05:07:11.341Z,2.40
2018-12-26T05:08:15.702Z,2.30
2018-12-26T05:09:20.233Z,2.40
2018-12-26T05:10:24.593Z,2.40
2018-12-26T05:11:29.224Z,2.40
2018-12-26T05:12:33.731Z,2.40
2018-12-26T05:13:38.176Z,2.40
2018-12-26T05:14:42.465Z,2.40
2018-12-26T05:15:47.060Z,2.40
2018-12-26T05:16:51.390Z,2.40
2018-12-26T05:17:55.713Z,2.50
2018-12-26T05:19:00.095Z,2.40
2018-12-26T05:21:08.218Z,2.40
2018-12-26T05:22:12.561Z,2.40
2018-12-26T05:23:16.923Z,2.40
2018-12-26T05:24:21.374Z,2.40
2018-12-26T05:25:25.876Z,2.40
2018-12-26T05:26:30.347Z,2.40
2018-12-26T05:27:34.722Z,2.40
2018-12-26T05:28:39.261Z,2.50
2018-12-26T05:29:43.557Z,2.50
2018-12-26T05:30:48.045Z,2.50
2018-12-26T05:31:52.359Z,2.50
2018-12-26T05:32:56.782Z,2.50
2018-12-26T05:34:01.129Z,2.50
2018-12-26T05:35:05.437Z,2.50
2018-12-26T05:36:09.831Z,2.60
2018-12-26T05:37:14.199Z,2.50
2018-12-26T05:38:18.566Z,2.50
2018-12-26T05:39:22.886Z,2.50
2018-12-26T05:40:27.244Z,2.50
2018-12-26T05:41:31.591Z,2.50
2018-12-26T05:42:35.962Z,2.50
2018-12-26T05:43:40.253Z,2.50
2018-12-26T05:44:44.665Z,2.50
2018-12-26T05:45:49.321Z,2.60
2018-12-26T05:46:53.706Z,2.60
2018-12-26T05:47:58.052Z,2.60
2018-12-26T05:49:02.385Z,2.60
2018-12-26T05:50:06.866Z,2.50
2018-12-26T05:51:11.383Z,2.60
2018-12-26T05:52:15.763Z,2.60
2018-12-26T05:53:20.085Z,2.60
2018-12-26T05:54:24.545Z,2.50
2018-12-26T05:55:28.999Z,2.60
2018-12-26T05:56:33.553Z,2.60
2018-12-26T05:57:42.830Z,2.50
2018-12-26T05:58:44.080Z,2.50
2018-12-26T05:59:48.577Z,2.60
2018-12-26T06:00:52.904Z,2.60
2018-12-26T06:01:57.265Z,2.60
2018-12-26T06:03:01.708Z,2.60
2018-12-26T06:04:06.053Z,2.60
2018-12-26T06:05:10.507Z,2.60
2018-12-26T06:06:14.841Z,2.60
2018-12-26T06:07:19.202Z,2.60
2018-12-26T06:08:23.637Z,2.60
2018-12-26T06:09:28.053Z,2.60
2018-12-26T06:10:32.510Z,2.60
2018-12-26T06:11:36.885Z,2.60
2018-12-26T06:12:41.301Z,2.60
2018-12-26T06:13:45.724Z,2.60
2018-12-26T06:14:50.106Z,2.60
2018-12-26T06:15:54.516Z,2.60
2018-12-26T06:16:58.833Z,2.60
2018-12-26T06:18:03.211Z,2.60
2018-12-26T06:19:07.630Z,2.50
2018-12-26T06:20:12.093Z,2.60
2018-12-26T06:21:16.428Z,2.50
2018-12-26T06:22:20.850Z,2.50
2018-12-26T06:23:25.214Z,2.50
2018-12-26T06:24:29.822Z,2.50
2018-12-26T06:25:34.147Z,2.50
2018-12-26T06:26:38.581Z,2.50
2018-12-26T06:27:51.261Z,2.50
2018-12-26T06:28:49.015Z,2.50
2018-12-26T06:29:53.384Z,2.50
2018-12-26T06:30:57.792Z,2.50
2018-12-26T06:32:02.150Z,2.50
2018-12-26T06:33:06.536Z,2.50
2018-12-26T06:34:10.913Z,2.60
2018-12-26T06:35:15.402Z,2.60
2018-12-26T06:36:19.801Z,2.50
2018-12-26T06:37:24.231Z,2.50
2018-12-26T06:38:28.623Z,2.60
2018-12-26T06:39:33.099Z,2.60
2018-12-26T06:40:37.493Z,2.60
2018-12-26T06:41:41.817Z,2.70
2018-12-26T06:42:46.229Z,2.60
2018-12-26T06:43:51.113Z,2.60
2018-12-26T06:44:56.546Z,2.60
2018-12-26T06:46:00.897Z,2.60
2018-12-26T06:47:05.208Z,2.60
2018-12-26T06:48:09.642Z,2.60
2018-12-26T06:49:14.113Z,2.50
2018-12-26T06:50:18.458Z,2.50
2018-12-26T06:51:22.782Z,2.50
2018-12-26T06:52:27.104Z,2.50
2018-12-26T06:53:31.573Z,2.50
2018-12-26T06:54:36.014Z,2.50
2018-12-26T06:55:41.690Z,2.50
2018-12-26T06:56:46.187Z,2.50
2018-12-26T06:57:50.660Z,2.50
2018-12-26T06:58:54.984Z,2.50
2018-12-26T06:59:59.399Z,2.50
2018-12-26T07:01:03.745Z,2.50
2018-12-26T07:02:08.080Z,2.50
2018-12-26T07:03:12.478Z,2.50
2018-12-26T07:04:16.787Z,2.40
2018-12-26T07:05:21.198Z,2.40
2018-12-26T07:06:25.641Z,2.50
2018-12-26T07:07:30.223Z,2.50
2018-12-26T07:08:34.566Z,2.50
2018-12-26T07:09:38.939Z,2.50
2018-12-26T07:10:43.304Z,2.40
2018-12-26T07:11:47.627Z,2.40
2018-12-26T07:12:51.961Z,2.40
2018-12-26T07:13:56.338Z,2.40
2018-12-26T07:15:00.755Z,2.40
2018-12-26T07:16:05.268Z,2.40
2018-12-26T07:17:09.604Z,2.40
2018-12-26T07:18:14.012Z,2.40
2018-12-26T07:19:18.412Z,2.40
2018-12-26T07:20:22.825Z,2.40
2018-12-26T07:21:27.213Z,2.40
2018-12-26T07:22:32.441Z,2.40
2018-12-26T07:23:36.863Z,2.40
2018-12-26T07:24:41.296Z,2.40
2018-12-26T07:25:46.237Z,2.40
2018-12-26T07:26:50.811Z,2.40
2018-12-26T07:27:55.266Z,2.30
2018-12-26T07:29:01.003Z,2.40
2018-12-26T07:30:05.937Z,2.40
2018-12-26T07:31:10.794Z,2.40
2018-12-26T07:32:15.202Z,2.40
2018-12-26T07:33:19.614Z,2.50
2018-12-26T07:34:23.974Z,2.50
2018-12-26T07:35:28.526Z,2.50
2018-12-26T07:36:33.119Z,2.40
2018-12-26T07:37:37.626Z,2.50
2018-12-26T07:38:42.070Z,2.50
2018-12-26T07:39:46.422Z,2.50
2018-12-26T07:40:50.788Z,2.50
2018-12-26T07:41:55.250Z,2.50
2018-12-26T07:42:59.561Z,2.50
2018-12-26T07:44:03.935Z,2.50
2018-12-26T07:45:08.753Z,2.50
2018-12-26T07:46:13.138Z,2.50
2018-12-26T07:47:17.529Z,2.50
2018-12-26T07:48:21.874Z,2.60
2018-12-26T07:49:26.239Z,2.50
2018-12-26T07:50:30.761Z,2.60
2018-12-26T07:51:35.203Z,2.60
2018-12-26T07:52:39.627Z,2.60
2018-12-26T07:53:44.048Z,2.60
2018-12-26T07:54:48.472Z,2.60
2018-12-26T07:55:52.863Z,2.60
2018-12-26T07:56:57.445Z,2.60
2018-12-26T07:58:01.811Z,2.70
2018-12-26T07:59:06.227Z,2.70
2018-12-26T08:00:10.820Z,2.70
2018-12-26T08:01:15.272Z,2.60
2018-12-26T08:02:19.761Z,2.60
2018-12-26T08:03:24.194Z,2.70
2018-12-26T08:04:28.590Z,2.70
2018-12-26T08:05:33.039Z,2.60
2018-12-26T08:06:37.391Z,2.60
2018-12-26T08:07:41.919Z,2.70
2018-12-26T08:08:46.311Z,2.70
2018-12-26T08:09:50.690Z,2.70
2018-12-26T08:10:55.027Z,2.70
2018-12-26T08:11:59.415Z,2.70
2018-12-26T08:13:03.886Z,2.70
2018-12-26T08:14:08.411Z,2.70
2018-12-26T08:15:12.810Z,2.70
2018-12-26T08:16:17.209Z,2.70
2018-12-26T08:17:21.629Z,2.80
2018-12-26T08:18:26.006Z,2.80
2018-12-26T08:19:30.469Z,2.80
2018-12-26T08:20:34.866Z,2.80
2018-12-26T08:21:39.226Z,2.80
2018-12-26T08:22:43.553Z,2.70
2018-12-26T08:23:48.014Z,2.70
2018-12-26T08:24:52.431Z,2.70
2018-12-26T08:25:56.821Z,2.80
2018-12-26T08:27:01.205Z,2.80
2018-12-26T08:28:05.637Z,2.80
2018-12-26T08:29:10.151Z,2.90
2018-12-26T08:30:14.578Z,2.80
2018-12-26T08:31:18.946Z,2.80
2018-12-26T08:32:23.431Z,2.90
2018-12-26T08:33:27.791Z,2.80
2018-12-26T08:34:32.575Z,2.90
2018-12-26T08:35:36.947Z,2.80
2018-12-26T08:36:41.313Z,2.80
2018-12-26T08:37:45.685Z,2.80
2018-12-26T08:38:50.167Z,2.80
2018-12-26T08:39:54.546Z,2.80
2018-12-26T08:40:58.865Z,2.80
2018-12-26T08:42:03.258Z,2.80
2018-12-26T08:43:07.618Z,2.80
2018-12-26T08:44:12.253Z,2.80
2018-12-26T08:45:16.682Z,2.80
2018-12-26T08:46:21.043Z,2.90
2018-12-26T08:47:25.461Z,3.00
2018-12-26T08:48:29.824Z,2.90
2018-12-26T08:49:34.373Z,2.90
2018-12-26T08:50:39.233Z,3.00
2018-12-26T08:51:43.665Z,3.00
2018-12-26T08:52:50.199Z,3.00
2018-12-26T08:53:54.264Z,2.90
2018-12-26T08:54:58.708Z,3.00
2018-12-26T08:56:03.205Z,3.00
2018-12-26T08:57:07.731Z,2.90
2018-12-26T08:58:12.421Z,2.90
2018-12-26T08:59:17.026Z,2.90
2018-12-26T09:00:21.498Z,3.00
2018-12-26T09:01:25.876Z,3.00
2018-12-26T09:02:30.511Z,3.00
2018-12-26T09:03:34.963Z,3.00
2018-12-26T09:04:39.541Z,3.00
2018-12-26T09:05:44.030Z,3.00
2018-12-26T09:06:48.485Z,3.00
2018-12-26T09:07:53.174Z,3.10
2018-12-26T09:08:57.671Z,3.10
2018-12-26T09:10:02.331Z,3.20
2018-12-26T09:11:06.787Z,3.10
2018-12-26T09:12:11.259Z,3.20
2018-12-26T09:13:15.819Z,3.20
2018-12-26T09:14:20.854Z,3.20
2018-12-26T09:15:25.283Z,3.20
2018-12-26T09:16:29.765Z,3.20
2018-12-26T09:17:34.228Z,3.10
2018-12-26T09:18:38.920Z,3.20
2018-12-26T09:19:43.536Z,3.10
2018-12-26T09:20:48.071Z,3.20
2018-12-26T09:21:52.471Z,3.20
2018-12-26T09:22:56.995Z,3.20
2018-12-26T09:24:01.456Z,3.20
2018-12-26T09:25:05.957Z,3.20
2018-12-26T09:26:12.260Z,3.10
2018-12-26T09:27:17.324Z,3.10
2018-12-26T09:28:21.950Z,3.10
2018-12-26T09:29:26.296Z,3.20
2018-12-26T09:30:30.919Z,3.20
2018-12-26T09:31:35.384Z,3.20
2018-12-26T09:32:39.890Z,3.20
2018-12-26T09:33:44.414Z,3.20
2018-12-26T09:34:48.823Z,3.20
2018-12-26T09:35:53.355Z,3.20
2018-12-26T09:36:57.795Z,3.20
2018-12-26T09:38:02.225Z,3.20
2018-12-26T09:39:08.027Z,3.30
2018-12-26T09:40:12.795Z,3.30
2018-12-26T09:41:17.370Z,3.20
2018-12-26T09:42:22.202Z,3.20
2018-12-26T09:43:26.654Z,3.30
2018-12-26T09:44:31.166Z,3.20
2018-12-26T09:45:35.655Z,3.30
2018-12-26T09:46:40.234Z,3.30
2018-12-26T09:47:44.870Z,3.40
2018-12-26T09:48:49.306Z,3.40
2018-12-26T09:49:53.794Z,3.40
2018-12-26T09:50:58.425Z,3.40
2018-12-26T09:52:02.841Z,3.40
2018-12-26T09:53:07.254Z,3.40
2018-12-26T09:54:11.854Z,3.40
2018-12-26T09:55:16.294Z,3.40
2018-12-26T09:56:20.812Z,3.40
2018-12-26T09:57:25.389Z,3.40
2018-12-26T09:58:29.862Z,3.50
2018-12-26T09:59:34.471Z,3.50
2018-12-26T10:00:38.974Z,3.50
2018-12-26T10:01:43.792Z,3.50
2018-12-26T10:02:48.392Z,3.50
2018-12-26T10:03:53.000Z,3.50
2018-12-26T10:04:57.476Z,3.50
2018-12-26T10:06:02.056Z,3.50
2018-12-26T10:07:07.191Z,3.50
2018-12-26T10:08:12.172Z,3.50
2018-12-26T10:09:16.807Z,3.50
2018-12-26T10:10:21.340Z,3.40
2018-12-26T10:11:25.871Z,3.50
2018-12-26T10:12:30.329Z,3.40
2018-12-26T10:13:34.930Z,3.50
2018-12-26T10:14:39.503Z,3.50
2018-12-26T10:15:44.217Z,3.50
2018-12-26T10:16:48.748Z,3.50
2018-12-26T10:17:53.313Z,3.60
2018-12-26T10:18:58.030Z,3.60
2018-12-26T10:20:02.544Z,3.60
2018-12-26T10:21:07.052Z,3.60
2018-12-26T10:22:11.586Z,3.60
2018-12-26T10:23:16.110Z,3.60
2018-12-26T10:24:20.603Z,3.60
2018-12-26T10:25:25.145Z,3.50
2018-12-26T10:26:29.596Z,3.50
2018-12-26T10:27:34.061Z,3.50
2018-12-26T10:28:38.515Z,3.50
2018-12-26T10:29:42.962Z,3.50
2018-12-26T10:30:47.378Z,3.50
2018-12-26T10:31:51.802Z,3.60
2018-12-26T10:32:56.328Z,3.60
2018-12-26T10:34:00.918Z,3.60
2018-12-26T10:35:05.625Z,3.60
2018-12-26T10:36:10.240Z,3.60
2018-12-26T10:37:15.017Z,3.60
2018-12-26T10:38:19.502Z,3.60
2018-12-26T10:39:24.351Z,3.70
2018-12-26T10:40:28.923Z,3.70
2018-12-26T10:41:33.485Z,3.70
2018-12-26T10:42:37.950Z,3.60
2018-12-26T10:43:42.565Z,3.60
2018-12-26T10:44:47.017Z,3.60
2018-12-26T10:45:51.469Z,3.60
2018-12-26T10:46:55.885Z,3.60
2018-12-26T10:48:00.301Z,3.60
2018-12-26T10:49:04.855Z,3.60
2018-12-26T10:50:11.313Z,3.60
2018-12-26T10:51:16.035Z,3.60
2018-12-26T10:52:20.528Z,3.60
2018-12-26T10:53:25.171Z,3.60
2018-12-26T10:54:29.801Z,3.60
2018-12-26T10:55:34.298Z,3.60
2018-12-26T10:56:39.040Z,3.60
2018-12-26T10:57:43.657Z,3.70
2018-12-26T10:58:48.193Z,3.60
2018-12-26T10:59:52.675Z,3.60
2018-12-26T11:00:57.164Z,3.60
2018-12-26T11:02:01.765Z,3.60
2018-12-26T11:03:06.216Z,3.60
2018-12-26T11:04:10.988Z,3.60
2018-12-26T11:05:15.901Z,3.70
2018-12-26T11:06:20.691Z,3.70
2018-12-26T11:07:25.500Z,3.70
2018-12-26T11:08:29.958Z,3.70
2018-12-26T11:09:34.408Z,3.80
2018-12-26T11:10:39.033Z,3.70
2018-12-26T11:11:43.562Z,3.80
2018-12-26T11:12:48.051Z,3.80
2018-12-26T11:13:52.597Z,3.80
2018-12-26T11:14:57.110Z,3.80
2018-12-26T11:16:01.907Z,3.70
2018-12-26T11:17:06.826Z,3.80
2018-12-26T11:18:11.967Z,3.80
2018-12-26T11:19:16.587Z,3.80
2018-12-26T11:20:21.294Z,3.90
2018-12-26T11:21:26.083Z,3.90
2018-12-26T11:22:30.596Z,3.80
2018-12-26T11:23:35.138Z,3.80
2018-12-26T11:24:39.745Z,3.80
2018-12-26T11:25:44.273Z,3.80
2018-12-26T11:26:48.925Z,3.90
2018-12-26T11:27:53.488Z,3.80
2018-12-26T11:28:58.062Z,3.80
2018-12-26T11:30:02.640Z,3.80
2018-12-26T11:31:07.212Z,3.80
2018-12-26T11:32:11.747Z,3.80
2018-12-26T11:33:16.504Z,3.80
2018-12-26T11:34:21.040Z,3.80
2018-12-26T11:35:25.821Z,3.80
2018-12-26T11:36:30.307Z,3.80
2018-12-26T11:37:34.782Z,3.80
2018-12-26T11:38:39.481Z,3.80
2018-12-26T11:39:44.023Z,3.80
2018-12-26T11:40:48.576Z,3.80
2018-12-26T11:41:53.077Z,3.90
2018-12-26T11:42:57.616Z,3.80
2018-12-26T11:44:02.175Z,3.80
2018-12-26T11:45:07.008Z,3.90
2018-12-26T11:46:11.610Z,3.90
2018-12-26T11:47:16.171Z,3.90
2018-12-26T11:48:20.666Z,3.90
2018-12-26T11:49:25.208Z,4.00
2018-12-26T11:50:29.678Z,4.30
2018-12-26T11:51:34.250Z,4.40
2018-12-26T11:52:38.761Z,4.40
2018-12-26T11:53:43.162Z,4.30
2018-12-26T11:54:47.795Z,4.30
2018-12-26T11:55:55.031Z,4.30
2018-12-26T11:56:59.797Z,4.30
2018-12-26T11:58:04.249Z,4.30
2018-12-26T11:59:08.774Z,4.20
2018-12-26T12:00:13.348Z,4.30
2018-12-26T12:01:17.866Z,4.20
2018-12-26T12:02:22.413Z,4.30
2018-12-26T12:03:26.934Z,4.20
2018-12-26T12:04:31.573Z,4.20
2018-12-26T12:05:36.361Z,4.30
2018-12-26T12:06:41.032Z,4.30
2018-12-26T12:07:45.589Z,4.30
2018-12-26T12:08:50.092Z,4.30
2018-12-26T12:09:54.508Z,4.30
2018-12-26T12:10:59.026Z,4.30
2018-12-26T12:12:03.671Z,4.30
2018-12-26T12:13:08.267Z,4.40
2018-12-26T12:14:13.278Z,4.40
2018-12-26T12:15:17.960Z,4.40
2018-12-26T12:16:22.563Z,4.40
2018-12-26T12:17:27.097Z,4.40
2018-12-26T12:18:31.637Z,4.40
2018-12-26T12:19:36.167Z,4.40
2018-12-26T12:20:40.704Z,4.40
2018-12-26T12:21:45.199Z,4.40
2018-12-26T12:22:49.750Z,4.40
2018-12-26T12:23:54.234Z,4.40
2018-12-26T12:24:58.715Z,4.40
2018-12-26T12:26:03.332Z,4.40
2018-12-26T12:27:07.975Z,4.30
2018-12-26T12:28:12.686Z,4.30
2018-12-26T12:29:17.077Z,4.20
2018-12-26T12:30:21.543Z,4.20
2018-12-26T12:31:26.066Z,4.20
2018-12-26T12:32:30.499Z,4.20
2018-12-26T12:33:35.072Z,4.20
2018-12-26T12:34:39.634Z,4.20
2018-12-26T12:35:44.094Z,4.20
2018-12-26T12:36:48.572Z,4.10
2018-12-26T12:37:53.084Z,4.20
2018-12-26T12:38:57.497Z,4.20
2018-12-26T12:40:02.147Z,4.20
2018-12-26T12:41:06.669Z,4.10
2018-12-26T12:42:11.227Z,4.10
2018-12-26T12:43:16.006Z,4.10
2018-12-26T12:44:21.631Z,4.10
2018-12-26T12:45:26.180Z,4.10
2018-12-26T12:46:30.793Z,4.10
2018-12-26T12:47:35.210Z,4.10
2018-12-26T12:48:39.765Z,4.10
2018-12-26T12:49:44.242Z,4.10
2018-12-26T12:50:48.718Z,4.10
2018-12-26T12:51:53.347Z,4.10
2018-12-26T12:52:57.858Z,4.10
2018-12-26T12:54:02.417Z,4.00
2018-12-26T12:55:07.008Z,4.00
2018-12-26T12:56:12.199Z,4.10
2018-12-26T12:57:16.999Z,4.10
2018-12-26T12:58:21.611Z,4.00
2018-12-26T12:59:26.248Z,4.00
2018-12-26T13:00:30.797Z,4.00
2018-12-26T13:01:35.609Z,4.10
2018-12-26T13:02:40.231Z,4.10
2018-12-26T13:03:46.659Z,4.10
2018-12-26T13:04:51.127Z,4.00
2018-12-26T13:05:55.589Z,4.10
2018-12-26T13:07:00.106Z,4.10
2018-12-26T13:08:04.607Z,4.10
2018-12-26T13:09:09.135Z,4.10
2018-12-26T13:10:14.043Z,4.10
2018-12-26T13:11:18.796Z,4.00
2018-12-26T13:12:23.678Z,4.10
2018-12-26T13:13:28.168Z,4.10
2018-12-26T13:14:32.636Z,4.10
2018-12-26T13:15:37.251Z,4.10
2018-12-26T13:16:43.089Z,4.00
2018-12-26T13:17:47.582Z,4.00
2018-12-26T13:18:52.107Z,4.00
2018-12-26T13:19:56.474Z,4.10
2018-12-26T13:21:00.989Z,4.10
2018-12-26T13:22:05.416Z,4.10
2018-12-26T13:23:09.945Z,4.00
2018-12-26T13:24:14.501Z,4.00
2018-12-26T13:25:18.939Z,4.00
2018-12-26T13:26:23.584Z,4.10
2018-12-26T13:27:28.047Z,4.00
2018-12-26T13:28:32.598Z,4.00
2018-12-26T13:29:37.175Z,4.00
2018-12-26T13:30:41.919Z,4.00
2018-12-26T13:31:46.486Z,4.00
2018-12-26T13:32:51.003Z,4.10
2018-12-26T13:33:55.539Z,4.10
2018-12-26T13:35:00.209Z,4.10
2018-12-26T13:36:04.889Z,4.10
2018-12-26T13:37:09.380Z,4.10
2018-12-26T13:38:13.949Z,4.10
2018-12-26T13:39:18.364Z,4.10
2018-12-26T13:40:23.018Z,4.10
2018-12-26T13:41:27.381Z,4.10
2018-12-26T13:42:31.756Z,4.00
2018-12-26T13:43:36.399Z,4.00
2018-12-26T13:44:40.838Z,4.00
2018-12-26T13:45:45.313Z,4.00
2018-12-26T13:46:50.102Z,4.00
2018-12-26T13:47:54.535Z,4.00
2018-12-26T13:48:59.046Z,4.10
2018-12-26T13:50:03.616Z,4.10
2018-12-26T13:51:08.113Z,4.00
2018-12-26T13:52:12.765Z,4.00
2018-12-26T13:53:17.536Z,4.00
2018-12-26T13:54:22.121Z,4.10
2018-12-26T13:55:26.547Z,4.10
2018-12-26T13:56:31.115Z,4.10
2018-12-26T13:57:35.760Z,4.00
2018-12-26T13:58:40.169Z,4.00
2018-12-26T13:59:45.064Z,4.00
2018-12-26T14:00:49.579Z,4.00
2018-12-26T14:01:53.987Z,4.00
2018-12-26T14:02:58.597Z,4.00
2018-12-26T14:04:03.206Z,4.00
2018-12-26T14:05:07.717Z,4.10
2018-12-26T14:06:12.427Z,4.10
2018-12-26T14:07:16.819Z,4.10
2018-12-26T14:08:21.424Z,4.00
2018-12-26T14:09:25.854Z,4.10
2018-12-26T14:10:49.497Z,4.10
2018-12-26T14:11:54.297Z,4.10
2018-12-26T14:12:59.317Z,4.10
2018-12-26T14:14:04.320Z,4.10
2018-12-26T14:15:10.178Z,4.10
2018-12-26T14:16:16.749Z,4.10
2018-12-26T14:17:21.774Z,4.10
2018-12-26T14:18:28.139Z,4.10
2018-12-26T14:19:32.852Z,4.20
2018-12-26T14:20:37.526Z,4.10
2018-12-26T14:21:42.094Z,4.20